createdAt,value
2018-11-13T00:01:58.843Z,79.36
2018-11-13T00:05:02.966Z,79.06
2018-11-13T00:08:07.103Z,79.13
2018-11-13T00:11:11.279Z,79.00
2018-11-13T00:14:15.351Z,77.92
2018-11-13T00:17:19.474Z,78.41
2018-11-13T00:20:23.591Z,78.23
2018-11-13T00:23:27.755Z,78.50
2018-11-13T00:26:31.874Z,76.97
2018-11-13T00:29:36.256Z,75.77
2018-11-13T00:32:40.195Z,75.67
2018-11-13T00:35:44.319Z,74.80
2018-11-13T00:38:48.439Z,74.86
2018-11-13T00:41:52.551Z,74.88
2018-11-13T00:44:56.685Z,74.50
2018-11-13T00:48:00.828Z,73.92
2018-11-13T00:51:05.058Z,74.24
2018-11-13T00:54:09.174Z,75.37
2018-11-13T00:57:13.444Z,75.55
2018-11-13T01:00:19.130Z,76.64
2018-11-13T01:03:23.171Z,76.15
2018-11-13T01:06:27.364Z,77.78
2018-11-13T01:09:31.566Z,78.37
2018-11-13T01:12:35.709Z,79.45
2018-11-13T01:15:39.821Z,78.77
2018-11-13T01:18:43.953Z,79.04
2018-11-13T01:21:48.082Z,79.27
2018-11-13T01:24:52.209Z,79.82
2018-11-13T01:42:10.363Z,79.94
2018-11-13T01:45:15.887Z,79.88
2018-11-13T01:48:20.035Z,78.68
2018-11-13T01:51:24.157Z,78.51
2018-11-13T01:54:28.301Z,78.70
2018-11-13T01:57:32.490Z,78.20
2018-11-13T02:00:36.634Z,78.17
2018-11-13T02:03:40.807Z,77.08
2018-11-13T02:06:44.970Z,76.18
2018-11-13T02:09:49.134Z,76.79
2018-11-13T02:12:53.535Z,76.39
2018-11-13T02:15:57.696Z,77.28
2018-11-13T02:19:01.874Z,78.44
2018-11-13T02:22:06.111Z,78.24
2018-11-13T02:25:12.943Z,79.43
2018-11-13T02:28:17.115Z,80.53
2018-11-13T02:34:53.539Z,81.25
2018-11-13T02:37:57.710Z,80.91
2018-11-13T02:41:01.964Z,81.44
2018-11-13T02:44:06.350Z,80.25
2018-11-13T02:47:10.515Z,80.52
2018-11-13T02:50:16.555Z,80.01
2018-11-13T02:53:20.750Z,80.63
2018-11-13T02:56:24.910Z,81.15
2018-11-13T02:59:29.073Z,81.18
2018-11-13T03:02:33.230Z,79.82
2018-11-13T03:05:37.414Z,80.23
2018-11-13T03:08:41.590Z,80.31
2018-11-13T03:11:45.761Z,79.78
2018-11-13T03:14:49.923Z,79.08
2018-11-13T03:17:54.096Z,78.45
2018-11-13T03:20:58.265Z,79.50
2018-11-13T03:24:02.431Z,78.29
2018-11-13T03:27:06.586Z,79.01
2018-11-13T03:30:19.003Z,78.41
2018-11-13T03:33:23.183Z,78.09
2018-11-13T03:36:27.343Z,77.62
2018-11-13T03:39:31.522Z,77.23
2018-11-13T03:42:35.687Z,76.90
2018-11-13T03:45:39.873Z,77.12
2018-11-13T03:48:44.094Z,77.47
2018-11-13T03:51:48.248Z,77.10
2018-11-13T03:54:52.415Z,77.67
2018-11-13T03:57:56.566Z,77.64
2018-11-13T04:01:00.722Z,78.34
2018-11-13T04:04:10.406Z,77.90
2018-11-13T04:07:14.562Z,77.87
2018-11-13T04:10:19.517Z,77.69
2018-11-13T04:13:23.670Z,77.63
2018-11-13T04:16:27.828Z,78.48
2018-11-13T04:19:32.025Z,78.83
2018-11-13T04:22:36.187Z,79.60
2018-11-13T04:25:40.348Z,80.22
2018-11-13T04:28:44.507Z,80.90
2018-11-13T04:31:48.667Z,81.28
2018-11-13T04:34:52.826Z,81.58
2018-11-13T04:37:56.963Z,81.40
2018-11-13T04:41:01.097Z,81.54
2018-11-13T04:44:05.401Z,81.15
2018-11-13T04:47:09.530Z,82.21
2018-11-13T04:50:15.599Z,81.57
2018-11-13T04:53:19.772Z,81.00
2018-11-13T04:56:23.923Z,81.56
2018-11-13T04:59:28.065Z,81.75
2018-11-13T05:02:32.297Z,79.73
2018-11-13T05:05:36.447Z,79.84
2018-11-13T05:08:40.591Z,79.01
2018-11-13T05:11:44.751Z,79.44
2018-11-13T05:14:48.911Z,79.02
2018-11-13T05:17:53.054Z,79.51
2018-11-13T05:20:57.206Z,78.87
2018-11-13T05:24:01.344Z,78.14
2018-11-13T05:27:05.802Z,78.25
2018-11-13T05:30:12.993Z,78.69
2018-11-13T05:33:17.146Z,78.11
2018-11-13T05:36:21.314Z,78.70
2018-11-13T05:39:25.475Z,78.54
2018-11-13T05:42:29.622Z,77.66
2018-11-13T05:45:33.912Z,78.67
2018-11-13T05:48:38.063Z,78.13
2018-11-13T05:51:42.240Z,77.37
2018-11-13T05:54:46.403Z,77.62
2018-11-13T05:57:50.846Z,78.00
2018-11-13T06:00:54.994Z,78.15
2018-11-13T06:03:59.138Z,79.12
2018-11-13T06:07:03.307Z,78.58
2018-11-13T06:10:08.858Z,78.21
2018-11-13T06:13:13.021Z,78.04
2018-11-13T06:16:17.174Z,78.90
2018-11-13T06:19:21.356Z,79.83
2018-11-13T06:22:25.499Z,81.54
2018-11-13T06:25:29.651Z,82.49
2018-11-13T06:28:33.808Z,82.68
2018-11-13T06:31:37.963Z,83.16
2018-11-13T06:34:42.140Z,83.80
2018-11-13T06:37:46.314Z,83.70
2018-11-13T06:40:50.447Z,84.18
2018-11-13T06:43:54.611Z,84.07
2018-11-13T06:46:58.751Z,84.27
2018-11-13T06:50:03.003Z,83.70
2018-11-13T06:53:07.155Z,83.60
2018-11-13T06:56:11.469Z,84.35
2018-11-13T06:59:15.599Z,83.87
2018-11-13T07:02:19.776Z,84.42
2018-11-13T07:05:23.924Z,84.03
2018-11-13T07:08:28.075Z,84.83
2018-11-13T07:11:32.223Z,84.87
2018-11-13T07:14:36.473Z,84.95
2018-11-13T07:17:41.171Z,85.17
2018-11-13T07:20:45.425Z,85.67
2018-11-13T07:23:49.573Z,85.43
2018-11-13T07:26:53.765Z,85.16
2018-11-13T07:29:57.978Z,85.48
2018-11-13T07:33:02.131Z,85.40
2018-11-13T07:36:06.291Z,85.87
2018-11-13T07:39:11.399Z,85.78
2018-11-13T07:42:15.676Z,85.94
2018-11-13T07:45:20.128Z,86.01
2018-11-13T07:48:24.278Z,85.83
2018-11-13T07:51:28.433Z,85.79
2018-11-13T07:54:33.523Z,85.69
2018-11-13T07:57:37.707Z,86.31
2018-11-13T08:00:41.859Z,86.04
2018-11-13T08:03:46.079Z,86.04
2018-11-13T08:06:50.282Z,85.46
2018-11-13T08:09:54.356Z,86.24
2018-11-13T08:12:58.552Z,86.08
2018-11-13T08:16:02.705Z,85.92
2018-11-13T08:19:06.909Z,85.95
2018-11-13T08:22:11.116Z,86.07
2018-11-13T08:25:15.253Z,86.15
2018-11-13T08:28:19.496Z,84.36
2018-11-13T08:31:23.634Z,83.99
2018-11-13T08:34:27.751Z,83.71
2018-11-13T08:37:31.892Z,83.44
2018-11-13T08:40:36.014Z,82.57
2018-11-13T08:43:40.229Z,81.21
2018-11-13T08:46:44.384Z,80.80
2018-11-13T08:49:48.495Z,81.10
2018-11-13T08:52:52.648Z,80.73
2018-11-13T08:55:56.767Z,79.49
2018-11-13T08:59:01.000Z,80.96
2018-11-13T09:02:05.565Z,80.25
2018-11-13T09:05:10.258Z,80.88
2018-11-13T09:08:14.322Z,80.68
2018-11-13T09:11:18.638Z,80.41
2018-11-13T09:14:22.901Z,81.01
2018-11-13T09:17:27.067Z,80.01
2018-11-13T09:20:31.283Z,80.95
2018-11-13T09:23:35.621Z,80.02
2018-11-13T09:26:40.039Z,80.15
2018-11-13T09:29:44.291Z,80.66
2018-11-13T09:32:49.057Z,79.63
2018-11-13T09:35:53.171Z,78.74
2018-11-13T09:38:57.353Z,79.70
2018-11-13T09:42:01.818Z,80.16
2018-11-13T09:45:06.131Z,80.14
2018-11-13T09:48:10.370Z,79.76
2018-11-13T09:51:14.559Z,79.95
2018-11-13T09:54:18.920Z,78.34
2018-11-13T09:57:23.095Z,77.95
2018-11-13T10:00:27.672Z,78.21
2018-11-13T10:03:32.432Z,78.14
2018-11-13T10:06:36.085Z,78.62
2018-11-13T10:09:40.292Z,78.58
2018-11-13T10:12:44.613Z,78.37
2018-11-13T10:15:48.787Z,78.65
2018-11-13T10:18:52.985Z,78.09
2018-11-13T10:21:57.218Z,78.52
2018-11-13T10:25:01.400Z,77.87
2018-11-13T10:28:05.661Z,76.31
2018-11-13T10:31:09.877Z,74.48
2018-11-13T10:34:14.134Z,75.55
2018-11-13T10:37:18.494Z,75.55
2018-11-13T10:40:23.345Z,76.23
2018-11-13T10:43:27.587Z,75.57
2018-11-13T10:46:31.969Z,74.87
2018-11-13T10:49:36.171Z,75.51
2018-11-13T10:52:40.610Z,75.33
2018-11-13T10:55:44.897Z,74.56
2018-11-13T10:58:49.404Z,75.12
2018-11-13T11:01:59.613Z,75.05
2018-11-13T11:05:10.171Z,75.53
2018-11-13T11:08:14.395Z,74.21
2018-11-13T11:11:18.587Z,74.05
2018-11-13T11:14:22.739Z,74.92
2018-11-13T11:17:26.972Z,74.36
2018-11-13T11:20:31.146Z,73.89
2018-11-13T11:23:35.420Z,75.09
2018-11-13T11:26:39.611Z,74.13
2018-11-13T11:29:43.808Z,73.93
2018-11-13T11:32:48.053Z,74.95
2018-11-13T11:35:52.273Z,75.20
2018-11-13T11:38:56.645Z,73.74
2018-11-13T11:42:00.778Z,73.34
2018-11-13T11:45:06.234Z,73.22
2018-11-13T11:48:10.582Z,73.82
2018-11-13T11:51:14.755Z,74.92
2018-11-13T11:54:18.935Z,74.20
2018-11-13T11:57:23.299Z,74.07
2018-11-13T12:00:34.194Z,73.89
2018-11-13T12:03:38.352Z,73.28
2018-11-13T12:06:42.650Z,72.76
2018-11-13T12:09:46.879Z,74.25
2018-11-13T12:12:51.186Z,73.44
2018-11-13T12:15:55.608Z,73.68
2018-11-13T12:18:59.807Z,72.74
2018-11-13T12:22:03.930Z,71.78
2018-11-13T12:25:11.180Z,71.34
2018-11-13T12:28:15.395Z,72.24
2018-11-13T12:31:19.677Z,72.25
2018-11-13T12:34:24.122Z,72.52
2018-11-13T12:37:28.606Z,71.91
2018-11-13T12:40:33.097Z,70.58
2018-11-13T12:43:37.392Z,70.61
2018-11-13T12:46:41.691Z,68.58
2018-11-13T12:49:45.909Z,67.79
2018-11-13T12:52:50.225Z,68.15
2018-11-13T12:55:54.597Z,66.64
2018-11-13T12:58:58.784Z,66.72
2018-11-13T13:02:04.808Z,67.78
2018-11-13T13:05:08.812Z,67.58
2018-11-13T13:08:13.058Z,67.95
2018-11-13T13:11:17.260Z,68.68
2018-11-13T13:14:21.703Z,69.14
2018-11-13T13:17:25.939Z,69.61
2018-11-13T13:20:30.243Z,70.13
2018-11-13T13:23:34.666Z,69.71
2018-11-13T13:26:39.039Z,68.72
2018-11-13T13:29:43.272Z,69.05
2018-11-13T13:32:47.998Z,68.36
2018-11-13T13:35:57.237Z,66.89
2018-11-13T13:39:01.415Z,67.63
2018-11-13T13:42:05.780Z,67.60
2018-11-13T13:45:09.968Z,67.53
2018-11-13T13:48:14.256Z,67.10
2018-11-13T13:51:18.436Z,65.99
2018-11-13T13:54:22.850Z,66.25
2018-11-13T13:57:26.971Z,66.16
2018-11-13T14:00:31.634Z,65.67
2018-11-13T14:03:36.160Z,62.65
2018-11-13T14:06:40.835Z,61.94
2018-11-13T14:09:45.049Z,60.57
2018-11-13T14:12:49.464Z,57.83
2018-11-13T14:15:53.954Z,58.55
2018-11-13T14:18:58.284Z,58.05
2018-11-13T14:22:02.497Z,59.21
2018-11-13T14:25:07.340Z,59.95
2018-11-13T14:28:11.515Z,60.77
2018-11-13T14:31:16.124Z,60.90
2018-11-13T14:34:20.380Z,60.42
2018-11-13T14:37:24.562Z,60.49
2018-11-13T14:40:34.414Z,60.00
2018-11-13T14:43:38.687Z,60.10
2018-11-13T14:46:42.894Z,59.78
2018-11-13T14:49:47.446Z,59.99
2018-11-13T14:52:52.267Z,59.91
2018-11-13T14:55:56.692Z,61.21
2018-11-13T14:59:00.944Z,61.00
2018-11-13T15:02:05.570Z,60.36
2018-11-13T15:05:11.702Z,61.87
2018-11-13T15:08:15.916Z,62.08
2018-11-13T15:11:20.195Z,61.86
2018-11-13T15:14:24.395Z,62.34
2018-11-13T15:17:28.565Z,62.91
2018-11-13T15:20:32.793Z,64.21
2018-11-13T15:23:36.999Z,65.02
2018-11-13T15:26:41.233Z,66.33
2018-11-13T15:29:45.437Z,66.83
2018-11-13T15:32:53.942Z,67.75
2018-11-13T15:35:58.151Z,68.65
2018-11-13T15:39:02.389Z,69.02
2018-11-13T15:42:07.302Z,68.74
2018-11-13T15:45:12.865Z,69.33
2018-11-13T15:48:17.299Z,68.92
2018-11-13T15:51:21.767Z,68.96
2018-11-13T15:54:25.908Z,70.09
2018-11-13T15:57:30.070Z,69.95
2018-11-13T16:00:35.475Z,70.32
2018-11-13T16:03:39.791Z,70.89
2018-11-13T16:06:43.971Z,71.20
2018-11-13T16:09:48.182Z,71.84
2018-11-13T16:12:52.422Z,71.42
2018-11-13T16:15:56.570Z,71.81
2018-11-13T16:19:00.737Z,72.37
2018-11-13T16:22:06.219Z,72.30
2018-11-13T16:25:09.530Z,73.14
2018-11-13T16:28:13.676Z,73.78
2018-11-13T16:31:17.889Z,73.98
2018-11-13T16:34:22.065Z,73.67
2018-11-13T16:37:26.161Z,74.35
2018-11-13T16:40:31.364Z,74.78
2018-11-13T16:43:35.510Z,74.04
2018-11-13T16:46:39.670Z,74.55
2018-11-13T16:49:43.828Z,74.67
2018-11-13T16:52:48.090Z,75.03
2018-11-13T16:56:01.676Z,75.08
2018-11-13T16:59:06.226Z,75.55
2018-11-13T17:02:10.406Z,75.42
2018-11-13T17:05:15.621Z,76.37
2018-11-13T17:08:19.693Z,75.87
2018-11-13T17:11:23.952Z,76.84
2018-11-13T17:14:28.071Z,75.87
2018-11-13T17:17:32.336Z,76.57
2018-11-13T17:20:36.509Z,76.76
2018-11-13T17:23:40.636Z,77.05
2018-11-13T17:26:44.719Z,77.02
2018-11-13T17:29:48.979Z,77.33
2018-11-13T17:32:54.319Z,77.36
2018-11-13T17:35:58.459Z,77.68
2018-11-13T17:39:02.566Z,77.11
2018-11-13T17:42:07.034Z,77.43
2018-11-13T17:45:15.306Z,77.93
2018-11-13T17:48:19.419Z,77.89
2018-11-13T17:51:23.542Z,78.53
2018-11-13T17:54:27.656Z,78.87
2018-11-13T17:57:31.766Z,79.01
2018-11-13T18:00:37.126Z,78.33
2018-11-13T18:03:41.255Z,77.86
2018-11-13T18:06:45.384Z,77.88
2018-11-13T18:09:49.510Z,78.48
2018-11-13T18:12:53.623Z,78.19
2018-11-13T18:15:57.775Z,78.55
2018-11-13T18:19:01.959Z,78.87
2018-11-13T18:22:06.236Z,78.89
2018-11-13T18:25:10.340Z,78.88
2018-11-13T18:28:14.555Z,78.89
2018-11-13T18:31:18.583Z,78.38
2018-11-13T18:34:22.726Z,77.78
2018-11-13T18:37:27.159Z,77.63
2018-11-13T18:40:31.289Z,77.29
2018-11-13T18:43:35.410Z,77.52
2018-11-13T18:46:39.550Z,77.90
2018-11-13T18:49:43.691Z,77.66
2018-11-13T18:52:47.837Z,78.26
2018-11-13T18:55:52.073Z,77.72
2018-11-13T18:58:56.345Z,78.44
2018-11-13T19:02:00.352Z,77.85
2018-11-13T19:05:04.554Z,78.19
2018-11-13T19:08:09.011Z,78.01
2018-11-13T19:11:13.309Z,77.83
2018-11-13T19:14:17.383Z,78.52
2018-11-13T19:17:21.622Z,79.34
2018-11-13T19:20:26.630Z,78.35
2018-11-13T19:23:30.645Z,80.06
2018-11-13T19:26:34.799Z,79.48
2018-11-13T19:29:39.021Z,78.58
2018-11-13T19:32:43.567Z,78.82
2018-11-13T19:35:47.873Z,78.57
2018-11-13T19:38:51.917Z,79.63
2018-11-13T19:41:56.049Z,79.92
2018-11-13T19:45:00.249Z,80.52
2018-11-13T19:48:04.398Z,80.32
2018-11-13T19:51:08.515Z,79.84
2018-11-13T19:54:12.812Z,79.83
2018-11-13T19:57:16.776Z,79.95
2018-11-13T20:00:22.294Z,79.91
2018-11-13T20:03:26.422Z,80.27
2018-11-13T20:06:30.559Z,80.75
2018-11-13T20:09:34.710Z,80.85
2018-11-13T20:12:38.859Z,81.79
2018-11-13T20:15:43.326Z,80.90
2018-11-13T20:18:47.399Z,81.04
2018-11-13T20:21:51.535Z,80.39
2018-11-13T20:24:55.675Z,80.80
2018-11-13T20:27:59.827Z,80.62
2018-11-13T20:31:04.742Z,80.41
2018-11-13T20:34:09.415Z,80.16
2018-11-13T20:37:14.735Z,80.78
2018-11-13T20:40:24.697Z,80.56
2018-11-13T20:43:29.644Z,80.93
2018-11-13T20:46:34.735Z,80.80
2018-11-13T20:49:39.468Z,80.87
2018-11-13T20:52:43.635Z,81.01
2018-11-13T20:55:47.790Z,80.58
2018-11-13T20:58:51.931Z,80.54
2018-11-13T21:01:56.190Z,80.96
2018-11-13T21:05:00.282Z,80.62
2018-11-13T21:08:04.515Z,80.84
2018-11-13T21:11:08.693Z,80.60
2018-11-13T21:14:12.746Z,80.68
2018-11-13T21:17:17.795Z,81.12
2018-11-13T21:20:21.872Z,81.07
2018-11-13T21:23:26.032Z,80.18
2018-11-13T21:26:30.103Z,79.72
2018-11-13T21:29:34.224Z,79.61
2018-11-13T21:32:38.441Z,79.40
2018-11-13T21:35:42.587Z,79.80
2018-11-13T21:38:46.726Z,82.92
2018-11-13T21:41:50.874Z,80.25
2018-11-13T21:44:54.994Z,79.85
2018-11-13T21:47:59.151Z,80.02
2018-11-13T21:51:03.314Z,79.33
2018-11-13T21:54:07.478Z,80.40
2018-11-13T21:57:11.730Z,80.42
2018-11-13T22:00:34.323Z,81.63
2018-11-13T22:03:38.525Z,80.57
2018-11-13T22:06:44.815Z,79.98
2018-11-13T22:09:48.971Z,79.94
2018-11-13T22:12:53.125Z,79.95
2018-11-13T22:15:57.335Z,80.21
2018-11-13T22:19:01.473Z,80.08
2018-11-13T22:22:05.806Z,79.57
2018-11-13T22:25:14.237Z,79.75
2018-11-13T22:28:18.360Z,79.77
2018-11-13T22:31:22.483Z,80.27
2018-11-13T22:34:26.630Z,80.24
2018-11-13T22:37:30.759Z,79.10
2018-11-13T22:40:34.907Z,79.38
2018-11-13T22:43:39.023Z,79.59
2018-11-13T22:46:43.151Z,79.38
2018-11-13T22:49:47.306Z,79.23
2018-11-13T22:52:51.883Z,79.98
2018-11-13T22:55:56.010Z,80.06
2018-11-13T22:59:00.154Z,78.80
2018-11-13T23:02:04.283Z,78.40
2018-11-13T23:05:08.496Z,79.19
2018-11-13T23:08:13.943Z,79.11
2018-11-13T23:11:18.095Z,80.31
2018-11-13T23:14:22.251Z,78.95
2018-11-13T23:17:26.856Z,78.83
2018-11-13T23:20:31.023Z,79.15
2018-11-13T23:23:35.153Z,79.30
2018-11-13T23:26:39.785Z,79.30
2018-11-13T23:29:43.622Z,78.66
2018-11-13T23:32:47.936Z,79.22
2018-11-13T23:35:52.036Z,79.41
2018-11-13T23:38:56.124Z,79.76
2018-11-13T23:42:00.391Z,79.75
2018-11-13T23:45:04.539Z,81.62
2018-11-13T23:48:08.690Z,83.10
2018-11-13T23:51:12.829Z,81.65
2018-11-13T23:54:17.019Z,80.96
2018-11-13T23:57:21.168Z,80.77
